sensor_id;sensor_type;location;lat;lon;timestamp;pressure;altitude;pressure_sealevel;temperature;humidity
40245;BME280;25963;42.694;23.600;2023-02-18T00:01:49;96003.50;;;-0.06;100.00
40245;BME280;25963;42.694;23.600;2023-02-18T00:04:14;96000.34;;;-0.09;100.00
40245;BME280;25963;42.694;23.600;2023-02-18T00:06:40;96002.09;;;-0.19;100.00
40245;BME280;25963;42.694;23.600;2023-02-18T00:09:05;95999.13;;;-0.15;100.00
40245;BME280;25963;42.694;23.600;2023-02-18T00:11:33;95996.13;;;-0.41;100.00
40245;BME280;25963;42.694;23.600;2023-02-18T00:14:01;95985.53;;;-0.28;100.00
40245;BME280;25963;42.694;23.600;2023-02-18T00:16:29;95981.97;;;-0.27;100.00
40245;BME280;25963;42.694;23.600;2023-02-18T00:18:59;95988.09;;;-0.38;100.00
40245;BME280;25963;42.694;23.600;2023-02-18T00:21:25;95984.34;;;-0.45;100.00
40245;BME280;25963;42.694;23.600;2023-02-18T00:23:50;95977.28;;;-0.43;100.00
40245;BME280;25963;42.694;23.600;2023-02-18T00:26:17;95978.50;;;-0.47;100.00
40245;BME280;25963;42.694;23.600;2023-02-18T00:28:44;95968.09;;;-0.57;100.00
40245;BME280;25963;42.694;23.600;2023-02-18T00:31:12;95968.75;;;-0.55;100.00
40245;BME280;25963;42.694;23.600;2023-02-18T00:33:38;95966.72;;;-0.51;100.00
40245;BME280;25963;42.694;23.600;2023-02-18T00:36:07;95963.56;;;-0.85;100.00
40245;BME280;25963;42.694;23.600;2023-02-18T00:38:33;95963.22;;;-0.71;100.00
40245;BME280;25963;42.694;23.600;2023-02-18T00:40:59;95963.03;;;-1.00;100.00
40245;BME280;25963;42.694;23.600;2023-02-18T00:43:25;95953.91;;;-0.83;100.00
40245;BME280;25963;42.694;23.600;2023-02-18T00:45:50;95953.91;;;-0.83;100.00
40245;BME280;25963;42.694;23.600;2023-02-18T00:48:16;95950.66;;;-0.97;100.00
40245;BME280;25963;42.694;23.600;2023-02-18T00:50:42;95953.00;;;-0.94;100.00
40245;BME280;25963;42.694;23.600;2023-02-18T00:53:07;95959.06;;;-0.83;100.00
40245;BME280;25963;42.694;23.600;2023-02-18T00:55:41;95952.75;;;-0.90;100.00
40245;BME280;25963;42.694;23.600;2023-02-18T00:58:07;95947.50;;;-1.00;100.00
40245;BME280;25963;42.694;23.600;2023-02-18T01:00:33;95946.88;;;-1.13;100.00
40245;BME280;25963;42.694;23.600;2023-02-18T01:02:59;95947.63;;;-1.02;100.00
40245;BME280;25963;42.694;23.600;2023-02-18T01:05:24;95936.91;;;-0.97;100.00
40245;BME280;25963;42.694;23.600;2023-02-18T01:07:50;95949.47;;;-0.93;100.00
40245;BME280;25963;42.694;23.600;2023-02-18T01:10:15;95944.81;;;-0.99;100.00
40245;BME280;25963;42.694;23.600;2023-02-18T01:12:41;95945.22;;;-0.94;100.00
40245;BME280;25963;42.694;23.600;2023-02-18T01:15:07;95943.44;;;-1.14;100.00
40245;BME280;25963;42.694;23.600;2023-02-18T01:17:33;95948.28;;;-1.09;100.00
40245;BME280;25963;42.694;23.600;2023-02-18T01:19:58;95946.88;;;-1.13;100.00
40245;BME280;25963;42.694;23.600;2023-02-18T01:22:25;95937.59;;;-1.16;100.00
40245;BME280;25963;42.694;23.600;2023-02-18T01:24:50;95938.97;;;-1.12;100.00
40245;BME280;25963;42.694;23.600;2023-02-18T01:27:16;95931.97;;;-1.00;100.00
40245;BME280;25963;42.694;23.600;2023-02-18T01:29:41;95917.25;;;-1.00;100.00
40245;BME280;25963;42.694;23.600;2023-02-18T01:32:06;95936.38;;;-0.91;100.00
40245;BME280;25963;42.694;23.600;2023-02-18T01:34:32;95933.69;;;-0.89;100.00
40245;BME280;25963;42.694;23.600;2023-02-18T01:36:58;95931.69;;;-0.76;100.00
40245;BME280;25963;42.694;23.600;2023-02-18T01:39:24;95933.69;;;-0.89;100.00
40245;BME280;25963;42.694;23.600;2023-02-18T01:41:49;95942.19;;;-0.78;100.00
40245;BME280;25963;42.694;23.600;2023-02-18T01:44:22;95938.41;;;-0.74;100.00
40245;BME280;25963;42.694;23.600;2023-02-18T01:46:48;95944.19;;;-0.81;100.00
40245;BME280;25963;42.694;23.600;2023-02-18T01:49:30;95936.44;;;-0.81;100.00
40245;BME280;25963;42.694;23.600;2023-02-18T01:52:00;95935.31;;;-0.88;100.00
40245;BME280;25963;42.694;23.600;2023-02-18T01:54:33;95939.16;;;-0.83;100.00
40245;BME280;25963;42.694;23.600;2023-02-18T01:57:13;95940.09;;;-0.84;100.00
40245;BME280;25963;42.694;23.600;2023-02-18T01:59:49;95939.63;;;-0.99;100.00
40245;BME280;25963;42.694;23.600;2023-02-18T02:02:19;95948.22;;;-0.98;100.00
40245;BME280;25963;42.694;23.600;2023-02-18T02:04:46;95947.97;;;-0.95;100.00
40245;BME280;25963;42.694;23.600;2023-02-18T02:07:12;95953.97;;;-0.95;100.00
40245;BME280;25963;42.694;23.600;2023-02-18T02:09:39;95947.25;;;-0.97;100.00
40245;BME280;25963;42.694;23.600;2023-02-18T02:36:43;95955.13;;;-1.41;100.00
40245;BME280;25963;42.694;23.600;2023-02-18T02:50:33;95945.47;;;-1.39;100.00
40245;BME280;25963;42.694;23.600;2023-02-18T02:53:05;95946.53;;;-1.41;100.00
40245;BME280;25963;42.694;23.600;2023-02-18T02:55:35;95952.78;;;-1.44;100.00
40245;BME280;25963;42.694;23.600;2023-02-18T02:58:01;95949.63;;;-1.79;100.00
40245;BME280;25963;42.694;23.600;2023-02-18T03:11:05;95953.50;;;-1.53;100.00
40245;BME280;25963;42.694;23.600;2023-02-18T03:19:51;95948.47;;;-1.54;100.00
40245;BME280;25963;42.694;23.600;2023-02-18T03:21:55;95942.09;;;-1.50;100.00
40245;BME280;25963;42.694;23.600;2023-02-18T03:24:38;95946.91;;;-1.46;100.00
40245;BME280;25963;42.694;23.600;2023-02-18T03:27:20;95944.38;;;-1.57;100.00
40245;BME280;25963;42.694;23.600;2023-02-18T03:29:51;95953.97;;;-1.48;100.00
40245;BME280;25963;42.694;23.600;2023-02-18T03:32:21;95951.41;;;-1.59;100.00
40245;BME280;25963;42.694;23.600;2023-02-18T03:34:52;95957.75;;;-1.52;100.00
40245;BME280;25963;42.694;23.600;2023-02-18T03:37:20;95977.50;;;-1.51;100.00
40245;BME280;25963;42.694;23.600;2023-02-18T03:39:50;95970.81;;;-1.53;100.00
40245;BME280;25963;42.694;23.600;2023-02-18T03:42:17;95976.81;;;-1.53;100.00
40245;BME280;25963;42.694;23.600;2023-02-18T03:44:43;95983.88;;;-1.55;100.00
40245;BME280;25963;42.694;23.600;2023-02-18T03:47:09;95986.91;;;-1.50;100.00
40245;BME280;25963;42.694;23.600;2023-02-18T03:49:35;95985.72;;;-1.46;100.00
40245;BME280;25963;42.694;23.600;2023-02-18T03:52:00;95985.97;;;-1.49;100.00
40245;BME280;25963;42.694;23.600;2023-02-18T03:54:25;95982.56;;;-1.49;100.00
40245;BME280;25963;42.694;23.600;2023-02-18T03:56:51;95982.97;;;-1.65;100.00
40245;BME280;25963;42.694;23.600;2023-02-18T03:59:16;95983.75;;;-1.97;100.00
40245;BME280;25963;42.694;23.600;2023-02-18T04:01:42;96001.22;;;-1.78;100.00
40245;BME280;25963;42.694;23.600;2023-02-18T04:04:07;95994.59;;;-1.71;100.00
40245;BME280;25963;42.694;23.600;2023-02-18T04:06:33;95987.81;;;-1.72;100.00
40245;BME280;25963;42.694;23.600;2023-02-18T04:08:58;95986.59;;;-1.68;100.00
40245;BME280;25963;42.694;23.600;2023-02-18T04:11:24;95982.84;;;-1.64;100.00
40245;BME280;25963;42.694;23.600;2023-02-18T04:13:49;95981.09;;;-1.63;100.00
40245;BME280;25963;42.694;23.600;2023-02-18T04:16:14;95979.88;;;-1.59;100.00
40245;BME280;25963;42.694;23.600;2023-02-18T04:18:40;95985.47;;;-1.75;100.00
40245;BME280;25963;42.694;23.600;2023-02-18T04:21:05;95988.28;;;-1.78;100.00
40245;BME280;25963;42.694;23.600;2023-02-18T04:23:31;95991.22;;;-1.71;100.00
40245;BME280;25963;42.694;23.600;2023-02-18T04:25:56;95987.94;;;-1.73;100.00
40245;BME280;25963;42.694;23.600;2023-02-18T04:28:22;95975.50;;;-1.91;100.00
40245;BME280;25963;42.694;23.600;2023-02-18T04:30:47;95971.03;;;-1.89;100.00
40245;BME280;25963;42.694;23.600;2023-02-18T04:33:13;95979.50;;;-1.87;100.00
40245;BME280;25963;42.694;23.600;2023-02-18T04:35:39;95966.69;;;-1.88;100.00
40245;BME280;25963;42.694;23.600;2023-02-18T04:38:07;95966.88;;;-1.80;100.00
40245;BME280;25963;42.694;23.600;2023-02-18T04:40:33;95961.13;;;-1.72;100.00
40245;BME280;25963;42.694;23.600;2023-02-18T04:42:59;95968.09;;;-1.84;100.00
40245;BME280;25963;42.694;23.600;2023-02-18T04:45:26;95980.34;;;-1.97;100.00
40245;BME280;25963;42.694;23.600;2023-02-18T04:47:52;95978.34;;;-1.94;100.00
40245;BME280;25963;42.694;23.600;2023-02-18T04:50:18;95978.34;;;-1.94;100.00
40245;BME280;25963;42.694;23.600;2023-02-18T04:52:44;95979.16;;;-1.93;100.00
40245;BME280;25963;42.694;23.600;2023-02-18T04:55:09;95975.63;;;-1.92;100.00
40245;BME280;25963;42.694;23.600;2023-02-18T04:57:35;95978.81;;;-2.00;100.00
40245;BME280;25963;42.694;23.600;2023-02-18T05:00:00;95978.44;;;-1.95;100.00
40245;BME280;25963;42.694;23.600;2023-02-18T05:02:25;95971.41;;;-1.93;100.00
40245;BME280;25963;42.694;23.600;2023-02-18T05:04:51;95980.44;;;-1.88;100.00
40245;BME280;25963;42.694;23.600;2023-02-18T05:07:16;95977.84;;;-1.88;100.00
40245;BME280;25963;42.694;23.600;2023-02-18T05:09:41;95967.13;;;-1.83;100.00
40245;BME280;25963;42.694;23.600;2023-02-18T05:12:07;95962.88;;;-1.73;100.00
40245;BME280;25963;42.694;23.600;2023-02-18T05:14:32;95964.09;;;-1.88;100.00
40245;BME280;25963;42.694;23.600;2023-02-18T05:16:58;95963.94;;;-1.75;100.00
40245;BME280;25963;42.694;23.600;2023-02-18T05:19:23;95964.84;;;-1.65;100.00
40245;BME280;25963;42.694;23.600;2023-02-18T05:21:49;95969.66;;;-1.61;100.00
40245;BME280;25963;42.694;23.600;2023-02-18T05:24:14;95963.75;;;-1.51;100.00
40245;BME280;25963;42.694;23.600;2023-02-18T05:26:39;95969.66;;;-1.61;100.00
40245;BME280;25963;42.694;23.600;2023-02-18T05:29:05;95972.81;;;-1.57;100.00
40245;BME280;25963;42.694;23.600;2023-02-18T05:31:30;95962.13;;;-1.52;100.00
40245;BME280;25963;42.694;23.600;2023-02-18T05:33:56;95972.13;;;-1.59;100.00
40245;BME280;25963;42.694;23.600;2023-02-18T05:36:21;95965.72;;;-1.44;100.00
40245;BME280;25963;42.694;23.600;2023-02-18T05:38:47;95965.25;;;-1.38;100.00
40245;BME280;25963;42.694;23.600;2023-02-18T05:41:12;95981.25;;;-1.44;100.00
40245;BME280;25963;42.694;23.600;2023-02-18T05:43:38;95969.25;;;-1.45;100.00
40245;BME280;25963;42.694;23.600;2023-02-18T05:46:22;95972.38;;;-1.30;100.00
40245;BME280;25963;42.694;23.600;2023-02-18T05:48:47;95975.50;;;-1.47;100.00
40245;BME280;25963;42.694;23.600;2023-02-18T05:51:13;95979.19;;;-1.29;100.00
40245;BME280;25963;42.694;23.600;2023-02-18T05:53:38;95980.47;;;-1.23;100.00
40245;BME280;25963;42.694;23.600;2023-02-18T05:56:04;95987.13;;;-1.09;100.00
40245;BME280;25963;42.694;23.600;2023-02-18T05:58:29;96000.13;;;-1.00;100.00
40245;BME280;25963;42.694;23.600;2023-02-18T06:00:55;95997.47;;;-0.88;100.00
40245;BME280;25963;42.694;23.600;2023-02-18T06:03:20;95987.06;;;-0.77;100.00
40245;BME280;25963;42.694;23.600;2023-02-18T06:05:48;95980.91;;;-0.76;100.00
40245;BME280;25963;42.694;23.600;2023-02-18T06:08:14;95976.84;;;-0.69;100.00
40245;BME280;25963;42.694;23.600;2023-02-18T06:10:40;95973.53;;;-0.60;100.00
40245;BME280;25963;42.694;23.600;2023-02-18T06:13:05;95974.50;;;-0.51;100.00
40245;BME280;25963;42.694;23.600;2023-02-18T06:15:30;95964.19;;;-0.41;100.00
40245;BME280;25963;42.694;23.600;2023-02-18T06:17:56;95962.91;;;-0.26;100.00
40245;BME280;25963;42.694;23.600;2023-02-18T06:20:21;95955.84;;;-0.14;100.00
40245;BME280;25963;42.694;23.600;2023-02-18T06:22:47;95958.06;;;0.00;100.00
40245;BME280;25963;42.694;23.600;2023-02-18T06:25:12;95969.28;;;0.10;100.00
40245;BME280;25963;42.694;23.600;2023-02-18T06:27:37;95979.84;;;0.28;100.00
40245;BME280;25963;42.694;23.600;2023-02-18T06:30:03;95988.34;;;0.40;100.00
40245;BME280;25963;42.694;23.600;2023-02-18T06:32:29;95991.19;;;0.47;100.00
40245;BME280;25963;42.694;23.600;2023-02-18T06:34:54;95987.38;;;0.51;100.00
40245;BME280;25963;42.694;23.600;2023-02-18T06:37:20;95989.31;;;0.68;100.00
40245;BME280;25963;42.694;23.600;2023-02-18T06:39:45;95961.69;;;0.86;100.00
40245;BME280;25963;42.694;23.600;2023-02-18T06:42:10;95986.44;;;1.00;100.00
40245;BME280;25963;42.694;23.600;2023-02-18T06:44:36;95987.91;;;1.22;100.00
40245;BME280;25963;42.694;23.600;2023-02-18T06:47:01;95978.06;;;1.35;100.00
40245;BME280;25963;42.694;23.600;2023-02-18T06:49:27;95980.22;;;1.50;100.00
40245;BME280;25963;42.694;23.600;2023-02-18T06:51:52;95979.38;;;1.59;100.00
40245;BME280;25963;42.694;23.600;2023-02-18T06:54:18;95972.75;;;1.74;100.00
40245;BME280;25963;42.694;23.600;2023-02-18T06:56:43;95970.63;;;1.88;100.00
40245;BME280;25963;42.694;23.600;2023-02-18T06:59:08;95972.06;;;2.00;100.00
40245;BME280;25963;42.694;23.600;2023-02-18T07:01:34;95954.78;;;2.09;100.00
40245;BME280;25963;42.694;23.600;2023-02-18T07:03:59;95961.06;;;2.16;100.00
40245;BME280;25963;42.694;23.600;2023-02-18T07:06:25;95965.59;;;2.32;100.00
40245;BME280;25963;42.694;23.600;2023-02-18T07:08:50;95967.03;;;2.44;100.00
40245;BME280;25963;42.694;23.600;2023-02-18T07:11:16;95965.03;;;2.56;100.00
40245;BME280;25963;42.694;23.600;2023-02-18T07:13:41;95961.41;;;2.66;100.00
40245;BME280;25963;42.694;23.600;2023-02-18T07:16:06;95966.06;;;2.81;100.00
40245;BME280;25963;42.694;23.600;2023-02-18T07:18:32;95961.03;;;2.97;100.00
40245;BME280;25963;42.694;23.600;2023-02-18T07:20:57;95966.00;;;3.08;100.00
40245;BME280;25963;42.694;23.600;2023-02-18T07:23:23;95961.88;;;3.24;100.00
40245;BME280;25963;42.694;23.600;2023-02-18T07:25:48;95954.81;;;3.42;100.00
40245;BME280;25963;42.694;23.600;2023-02-18T07:28:14;95938.25;;;3.51;100.00
40245;BME280;25963;42.694;23.600;2023-02-18T07:30:39;95952.56;;;3.73;97.05
40245;BME280;25963;42.694;23.600;2023-02-18T07:33:05;95953.47;;;3.90;92.98
40245;BME280;25963;42.694;23.600;2023-02-18T07:35:30;95955.81;;;4.09;90.12
40245;BME280;25963;42.694;23.600;2023-02-18T07:37:56;95952.47;;;4.25;91.32
40245;BME280;25963;42.694;23.600;2023-02-18T07:40:22;95957.38;;;4.37;85.60
40245;BME280;25963;42.694;23.600;2023-02-18T07:42:47;95948.59;;;4.46;85.46
40245;BME280;25963;42.694;23.600;2023-02-18T07:45:13;95959.56;;;4.66;89.17
40245;BME280;25963;42.694;23.600;2023-02-18T07:47:39;95960.88;;;4.78;78.91
40245;BME280;25963;42.694;23.600;2023-02-18T07:50:07;95970.03;;;4.90;77.82
40245;BME280;25963;42.694;23.600;2023-02-18T07:52:33;95970.72;;;5.00;74.97
40245;BME280;25963;42.694;23.600;2023-02-18T07:54:58;95961.72;;;5.19;80.02
40245;BME280;25963;42.694;23.600;2023-02-18T07:57:23;95968.09;;;5.33;77.85
40245;BME280;25963;42.694;23.600;2023-02-18T07:59:49;95956.97;;;5.39;75.29
40245;BME280;25963;42.694;23.600;2023-02-18T08:02:22;95964.63;;;5.57;77.22
40245;BME280;25963;42.694;23.600;2023-02-18T08:04:48;95964.28;;;5.68;74.93
40245;BME280;25963;42.694;23.600;2023-02-18T08:07:16;95960.47;;;5.87;75.33
40245;BME280;25963;42.694;23.600;2023-02-18T08:09:42;95953.25;;;6.06;79.97
40245;BME280;25963;42.694;23.600;2023-02-18T08:12:07;95942.69;;;6.22;79.21
40245;BME280;25963;42.694;23.600;2023-02-18T08:14:33;95933.44;;;6.66;86.50
40245;BME280;25963;42.694;23.600;2023-02-18T08:16:58;95944.56;;;6.91;79.69
40245;BME280;25963;42.694;23.600;2023-02-18T08:19:24;95955.88;;;7.14;75.25
40245;BME280;25963;42.694;23.600;2023-02-18T08:21:49;95947.06;;;7.30;74.74
40245;BME280;25963;42.694;23.600;2023-02-18T08:24:15;95953.56;;;7.57;70.04
40245;BME280;25963;42.694;23.600;2023-02-18T08:26:40;95959.41;;;7.59;68.76
40245;BME280;25963;42.694;23.600;2023-02-18T08:29:06;95953.75;;;8.15;76.40
40245;BME280;25963;42.694;23.600;2023-02-18T08:31:31;95948.63;;;8.58;66.69
40245;BME280;25963;42.694;23.600;2023-02-18T08:33:58;95943.84;;;8.83;60.33
40245;BME280;25963;42.694;23.600;2023-02-18T08:36:25;95928.06;;;9.04;62.78
40245;BME280;25963;42.694;23.600;2023-02-18T08:38:51;95929.94;;;9.10;61.29
40245;BME280;25963;42.694;23.600;2023-02-18T08:41:17;95920.78;;;9.28;60.73
40245;BME280;25963;42.694;23.600;2023-02-18T08:43:46;95922.50;;;9.21;61.55
40245;BME280;25963;42.694;23.600;2023-02-18T08:46:13;95914.09;;;9.32;61.16
40245;BME280;25963;42.694;23.600;2023-02-18T08:48:38;95921.41;;;9.58;62.44
40245;BME280;25963;42.694;23.600;2023-02-18T08:51:19;95917.47;;;9.47;56.46
40245;BME280;25963;42.694;23.600;2023-02-18T08:53:45;95915.63;;;9.48;59.57
40245;BME280;25963;42.694;23.600;2023-02-18T08:56:12;95908.31;;;9.43;56.14
40245;BME280;25963;42.694;23.600;2023-02-18T08:58:39;95912.09;;;9.34;58.49
40245;BME280;25963;42.694;23.600;2023-02-18T09:01:07;95912.72;;;9.36;56.53
40245;BME280;25963;42.694;23.600;2023-02-18T09:03:34;95915.97;;;9.38;56.96
40245;BME280;25963;42.694;23.600;2023-02-18T09:06:00;95912.28;;;9.32;58.65
40245;BME280;25963;42.694;23.600;2023-02-18T09:08:27;95913.94;;;9.33;57.06
40245;BME280;25963;42.694;23.600;2023-02-18T09:10:56;95907.44;;;9.36;56.69
40245;BME280;25963;42.694;23.600;2023-02-18T09:13:24;95905.41;;;9.31;56.28
40245;BME280;25963;42.694;23.600;2023-02-18T09:15:57;95904.25;;;9.41;57.48
40245;BME280;25963;42.694;23.600;2023-02-18T09:18:23;95918.09;;;9.49;57.44
40245;BME280;25963;42.694;23.600;2023-02-18T09:20:49;95918.41;;;9.68;57.25
40245;BME280;25963;42.694;23.600;2023-02-18T09:23:14;95914.53;;;9.98;56.71
40245;BME280;25963;42.694;23.600;2023-02-18T09:25:40;95899.09;;;9.95;57.77
40245;BME280;25963;42.694;23.600;2023-02-18T09:28:05;95901.53;;;9.90;55.90
40245;BME280;25963;42.694;23.600;2023-02-18T09:30:31;95901.72;;;9.89;55.81
40245;BME280;25963;42.694;23.600;2023-02-18T09:32:56;95896.72;;;10.00;57.56
40245;BME280;25963;42.694;23.600;2023-02-18T09:35:22;95906.91;;;10.17;56.99
40245;BME280;25963;42.694;23.600;2023-02-18T09:37:47;95900.81;;;10.16;57.06
40245;BME280;25963;42.694;23.600;2023-02-18T09:40:29;95904.00;;;10.46;57.77
40245;BME280;25963;42.694;23.600;2023-02-18T09:42:57;95893.34;;;10.81;56.03
40245;BME280;25963;42.694;23.600;2023-02-18T09:45:23;95882.41;;;11.11;55.90
40245;BME280;25963;42.694;23.600;2023-02-18T09:47:50;95885.66;;;11.39;52.57
40245;BME280;25963;42.694;23.600;2023-02-18T09:52:47;95884.81;;;11.79;52.54
40245;BME280;25963;42.694;23.600;2023-02-18T09:55:26;95880.72;;;11.90;50.40
40245;BME280;25963;42.694;23.600;2023-02-18T09:57:55;95871.31;;;12.07;51.50
40245;BME280;25963;42.694;23.600;2023-02-18T10:03:14;95873.16;;;12.51;48.61
40245;BME280;25963;42.694;23.600;2023-02-18T10:05:52;95868.75;;;12.70;47.01
40245;BME280;25963;42.694;23.600;2023-02-18T10:08:26;95857.06;;;12.85;47.72
40245;BME280;25963;42.694;23.600;2023-02-18T10:10:53;95848.81;;;12.68;44.38
40245;BME280;25963;42.694;23.600;2023-02-18T10:13:24;95849.28;;;12.58;47.27
40245;BME280;25963;42.694;23.600;2023-02-18T10:15:51;95843.81;;;12.60;45.67
40245;BME280;25963;42.694;23.600;2023-02-18T10:18:40;95835.59;;;12.68;46.11
40245;BME280;25963;42.694;23.600;2023-02-18T10:21:13;95849.72;;;12.55;45.39
40245;BME280;25963;42.694;23.600;2023-02-18T10:23:43;95841.91;;;12.67;47.19
40245;BME280;25963;42.694;23.600;2023-02-18T10:26:12;95839.03;;;12.75;47.16
40245;BME280;25963;42.694;23.600;2023-02-18T10:28:38;95842.53;;;12.94;46.26
40245;BME280;25963;42.694;23.600;2023-02-18T10:31:07;95831.47;;;13.03;46.11
40245;BME280;25963;42.694;23.600;2023-02-18T10:33:56;95831.56;;;12.90;44.33
40245;BME280;25963;42.694;23.600;2023-02-18T10:36:26;95829.19;;;12.82;44.90
40245;BME280;25963;42.694;23.600;2023-02-18T10:44:49;95824.53;;;12.46;40.41
40245;BME280;25963;42.694;23.600;2023-02-18T10:50:31;95796.44;;;12.76;42.51
40245;BME280;25963;42.694;23.600;2023-02-18T10:55:46;95793.56;;;13.53;37.99
40245;BME280;25963;42.694;23.600;2023-02-18T11:00:56;95788.97;;;13.97;38.75
40245;BME280;25963;42.694;23.600;2023-02-18T11:03:36;95788.22;;;14.08;39.91
40245;BME280;25963;42.694;23.600;2023-02-18T11:06:03;95787.31;;;14.14;38.60
40245;BME280;25963;42.694;23.600;2023-02-18T11:08:38;95777.47;;;14.33;37.52
40245;BME280;25963;42.694;23.600;2023-02-18T11:11:16;95779.34;;;14.45;38.58
40245;BME280;25963;42.694;23.600;2023-02-18T11:13:42;95768.78;;;14.56;40.53
40245;BME280;25963;42.694;23.600;2023-02-18T11:16:09;95763.81;;;14.18;36.31
40245;BME280;25963;42.694;23.600;2023-02-18T11:21:17;95750.34;;;14.01;36.00
40245;BME280;25963;42.694;23.600;2023-02-18T11:23:49;95749.06;;;13.92;36.44
40245;BME280;25963;42.694;23.600;2023-02-18T11:26:17;95750.06;;;14.09;36.08
40245;BME280;25963;42.694;23.600;2023-02-18T11:28:50;95742.19;;;14.45;36.29
40245;BME280;25963;42.694;23.600;2023-02-18T11:31:22;95731.31;;;14.65;36.39
40245;BME280;25963;42.694;23.600;2023-02-18T11:33:56;95722.41;;;14.71;35.01
40245;BME280;25963;42.694;23.600;2023-02-18T11:36:30;95723.34;;;14.88;38.38
40245;BME280;25963;42.694;23.600;2023-02-18T11:38:58;95715.72;;;15.15;37.88
40245;BME280;25963;42.694;23.600;2023-02-18T11:41:39;95719.19;;;15.27;36.39
40245;BME280;25963;42.694;23.600;2023-02-18T11:44:40;95709.03;;;15.01;34.02
40245;BME280;25963;42.694;23.600;2023-02-18T11:49:40;95705.66;;;14.58;34.44
40245;BME280;25963;42.694;23.600;2023-02-18T11:52:31;95699.34;;;14.29;34.26
40245;BME280;25963;42.694;23.600;2023-02-18T11:55:06;95688.94;;;14.16;34.75
40245;BME280;25963;42.694;23.600;2023-02-18T11:57:41;95684.13;;;14.25;37.34
40245;BME280;25963;42.694;23.600;2023-02-18T12:02:53;95672.34;;;14.32;34.62
40245;BME280;25963;42.694;23.600;2023-02-18T12:05:23;95665.44;;;14.43;35.37
40245;BME280;25963;42.694;23.600;2023-02-18T12:07:53;95665.66;;;14.42;34.63
40245;BME280;25963;42.694;23.600;2023-02-18T12:10:42;95661.97;;;14.31;34.99
40245;BME280;25963;42.694;23.600;2023-02-18T12:24:05;95637.69;;;14.69;36.38
40245;BME280;25963;42.694;23.600;2023-02-18T12:26:48;95646.13;;;14.78;36.93
40245;BME280;25963;42.694;23.600;2023-02-18T12:35:02;95625.22;;;14.70;36.20
40245;BME280;25963;42.694;23.600;2023-02-18T12:37:45;95622.06;;;14.49;35.62
40245;BME280;25963;42.694;23.600;2023-02-18T12:40:50;95614.00;;;14.56;36.24
40245;BME280;25963;42.694;23.600;2023-02-18T13:04:53;95602.03;;;15.29;35.01
40245;BME280;25963;42.694;23.600;2023-02-18T13:12:54;95603.59;;;15.42;33.96
40245;BME280;25963;42.694;23.600;2023-02-18T13:18:02;95591.69;;;15.44;35.86
40245;BME280;25963;42.694;23.600;2023-02-18T13:23:03;95601.16;;;15.40;35.29
40245;BME280;25963;42.694;23.600;2023-02-18T13:25:34;95602.78;;;15.41;34.67
40245;BME280;25963;42.694;23.600;2023-02-18T13:28:19;95603.44;;;15.48;35.19
40245;BME280;25963;42.694;23.600;2023-02-18T13:33:47;95610.72;;;15.13;35.25
40245;BME280;25963;42.694;23.600;2023-02-18T13:39:21;95597.91;;;14.98;36.18
40245;BME280;25963;42.694;23.600;2023-02-18T13:41:49;95587.56;;;14.84;36.59
40245;BME280;25963;42.694;23.600;2023-02-18T13:46:50;95582.38;;;14.78;36.73
40245;BME280;25963;42.694;23.600;2023-02-18T13:49:25;95577.19;;;14.71;36.14
40245;BME280;25963;42.694;23.600;2023-02-18T13:51:54;95573.97;;;14.57;36.82
40245;BME280;25963;42.694;23.600;2023-02-18T13:54:31;95575.56;;;14.47;36.63
40245;BME280;25963;42.694;23.600;2023-02-18T13:57:04;95570.03;;;14.48;37.31
40245;BME280;25963;42.694;23.600;2023-02-18T14:04:54;95578.19;;;14.47;37.19
40245;BME280;25963;42.694;23.600;2023-02-18T14:10:05;95563.53;;;14.32;37.53
40245;BME280;25963;42.694;23.600;2023-02-18T14:15:00;95568.94;;;14.02;36.94
40245;BME280;25963;42.694;23.600;2023-02-18T14:17:32;95571.47;;;14.09;37.18
40245;BME280;25963;42.694;23.600;2023-02-18T14:22:28;95583.72;;;13.98;37.48
40245;BME280;25963;42.694;23.600;2023-02-18T14:25:03;95578.41;;;13.98;37.70
40245;BME280;25963;42.694;23.600;2023-02-18T14:27:29;95576.81;;;13.97;37.92
40245;BME280;25963;42.694;23.600;2023-02-18T14:30:02;95584.31;;;14.00;38.27
40245;BME280;25963;42.694;23.600;2023-02-18T14:32:28;95583.44;;;13.88;37.81
40245;BME280;25963;42.694;23.600;2023-02-18T14:35:55;95583.31;;;13.71;37.97
40245;BME280;25963;42.694;23.600;2023-02-18T14:38:27;95583.88;;;13.73;38.08
40245;BME280;25963;42.694;23.600;2023-02-18T14:41:44;95574.41;;;13.65;38.87
40245;BME280;25963;42.694;23.600;2023-02-18T14:47:28;95580.75;;;13.64;39.75
40245;BME280;25963;42.694;23.600;2023-02-18T14:50:01;95591.34;;;13.64;39.00
40245;BME280;25963;42.694;23.600;2023-02-18T14:52:29;95585.16;;;13.70;38.62
40245;BME280;25963;42.694;23.600;2023-02-18T14:54:57;95585.34;;;13.69;38.46
40245;BME280;25963;42.694;23.600;2023-02-18T14:57:33;95579.84;;;13.70;38.80
40245;BME280;25963;42.694;23.600;2023-02-18T15:00:00;95568.31;;;13.65;38.35
40245;BME280;25963;42.694;23.600;2023-02-18T15:02:28;95574.44;;;13.77;38.84
40245;BME280;25963;42.694;23.600;2023-02-18T15:05:18;95555.53;;;13.74;38.62
40245;BME280;25963;42.694;23.600;2023-02-18T15:10:19;95554.81;;;13.66;38.48
40245;BME280;25963;42.694;23.600;2023-02-18T15:12:45;95567.13;;;13.61;39.26
40245;BME280;25963;42.694;23.600;2023-02-18T15:15:14;95568.16;;;13.60;39.77
40245;BME280;25963;42.694;23.600;2023-02-18T15:17:47;95563.16;;;13.52;39.26
40245;BME280;25963;42.694;23.600;2023-02-18T15:20:16;95559.72;;;13.51;39.38
40245;BME280;25963;42.694;23.600;2023-02-18T15:22:42;95563.00;;;13.35;40.74
40245;BME280;25963;42.694;23.600;2023-02-18T15:25:10;95553.13;;;13.23;40.03
40245;BME280;25963;42.694;23.600;2023-02-18T15:27:39;95564.41;;;13.19;39.76
40245;BME280;25963;42.694;23.600;2023-02-18T15:32:53;95560.97;;;13.00;40.63
40245;BME280;25963;42.694;23.600;2023-02-18T15:35:20;95565.19;;;12.89;41.00